sensor_id;sensor_type;location;lat;lon;timestamp;P1;durP1;ratioP1;P2;durP2;ratioP2
40815;SDS011;26535;48.788;9.214;2022-09-09T08:30:15;4.07;;;0.90;;
40815;SDS011;26535;48.788;9.214;2022-09-09T08:32:41;4.82;;;0.77;;
40815;SDS011;26535;48.788;9.214;2022-09-09T08:35:09;3.95;;;0.73;;
40815;SDS011;26535;48.788;9.214;2022-09-09T08:37:39;3.05;;;0.50;;
40815;SDS011;26535;48.788;9.214;2022-09-09T08:40:05;2.33;;;0.57;;
40815;SDS011;26535;48.788;9.214;2022-09-09T08:42:46;3.00;;;0.60;;
40815;SDS011;26535;48.788;9.214;2022-09-09T08:45:19;3.42;;;0.60;;
40815;SDS011;26535;48.788;9.214;2022-09-09T08:48:11;3.42;;;0.80;;
40815;SDS011;26535;48.788;9.214;2022-09-09T08:50:53;2.03;;;0.63;;
40815;SDS011;26535;48.788;9.214;2022-09-09T08:53:28;4.95;;;0.70;;
40815;SDS011;26535;48.788;9.214;2022-09-09T08:56:09;3.05;;;0.60;;
40815;SDS011;26535;48.788;9.214;2022-09-09T08:58:48;4.88;;;0.98;;
40815;SDS011;26535;48.788;9.214;2022-09-09T09:07:28;3.17;;;0.52;;
40815;SDS011;26535;48.788;9.214;2022-09-09T09:13:17;3.33;;;0.60;;
40815;SDS011;26535;48.788;9.214;2022-09-09T09:15:48;5.82;;;0.60;;
40815;SDS011;26535;48.788;9.214;2022-09-09T09:18:19;3.20;;;0.50;;
40815;SDS011;26535;48.788;9.214;2022-09-09T09:23:41;2.53;;;0.70;;
40815;SDS011;26535;48.788;9.214;2022-09-09T09:26:25;4.13;;;0.52;;
40815;SDS011;26535;48.788;9.214;2022-09-09T09:29:13;2.80;;;0.50;;
40815;SDS011;26535;48.788;9.214;2022-09-09T09:34:48;3.65;;;0.50;;
40815;SDS011;26535;48.788;9.214;2022-09-09T09:37:37;2.92;;;0.60;;
40815;SDS011;26535;48.788;9.214;2022-09-09T09:40:18;3.42;;;0.40;;
40815;SDS011;26535;48.788;9.214;2022-09-09T09:43:01;2.10;;;0.30;;
40815;SDS011;26535;48.788;9.214;2022-09-09T09:45:34;2.45;;;0.30;;
40815;SDS011;26535;48.788;9.214;2022-09-09T09:48:19;1.45;;;0.22;;
40815;SDS011;26535;48.788;9.214;2022-09-09T09:50:48;2.08;;;0.40;;
40815;SDS011;26535;48.788;9.214;2022-09-09T09:53:25;1.48;;;0.45;;
40815;SDS011;26535;48.788;9.214;2022-09-09T09:56:38;1.63;;;0.28;;
40815;SDS011;26535;48.788;9.214;2022-09-09T09:58:54;1.15;;;0.32;;
40815;SDS011;26535;48.788;9.214;2022-09-09T10:01:34;1.83;;;0.40;;
40815;SDS011;26535;48.788;9.214;2022-09-09T10:04:15;2.97;;;0.35;;
40815;SDS011;26535;48.788;9.214;2022-09-09T10:06:47;2.15;;;0.30;;
40815;SDS011;26535;48.788;9.214;2022-09-09T10:14:50;2.90;;;0.70;;
40815;SDS011;26535;48.788;9.214;2022-09-09T10:17:53;4.03;;;0.90;;
40815;SDS011;26535;48.788;9.214;2022-09-09T10:26:29;4.20;;;0.60;;
40815;SDS011;26535;48.788;9.214;2022-09-09T10:32:25;3.58;;;0.68;;
40815;SDS011;26535;48.788;9.214;2022-09-09T10:40:33;3.03;;;0.50;;
40815;SDS011;26535;48.788;9.214;2022-09-09T10:48:30;2.40;;;0.40;;
40815;SDS011;26535;48.788;9.214;2022-09-09T10:51:11;3.85;;;0.57;;
40815;SDS011;26535;48.788;9.214;2022-09-09T10:56:37;2.25;;;0.40;;
40815;SDS011;26535;48.788;9.214;2022-09-09T11:01:44;3.42;;;0.40;;
40815;SDS011;26535;48.788;9.214;2022-09-09T11:04:42;5.03;;;0.68;;
40815;SDS011;26535;48.788;9.214;2022-09-09T11:07:19;1.95;;;0.60;;
40815;SDS011;26535;48.788;9.214;2022-09-09T11:10:00;4.78;;;0.60;;
40815;SDS011;26535;48.788;9.214;2022-09-09T11:12:31;3.95;;;0.60;;
40815;SDS011;26535;48.788;9.214;2022-09-09T11:17:46;2.15;;;0.65;;
40815;SDS011;26535;48.788;9.214;2022-09-09T11:20:23;5.05;;;0.60;;
40815;SDS011;26535;48.788;9.214;2022-09-09T11:25:42;1.52;;;0.32;;
40815;SDS011;26535;48.788;9.214;2022-09-09T11:36:32;1.63;;;0.30;;
40815;SDS011;26535;48.788;9.214;2022-09-09T11:39:24;6.53;;;0.40;;
40815;SDS011;26535;48.788;9.214;2022-09-09T11:44:39;3.92;;;0.30;;
40815;SDS011;26535;48.788;9.214;2022-09-09T11:47:26;4.15;;;0.40;;
40815;SDS011;26535;48.788;9.214;2022-09-09T11:52:41;1.88;;;0.28;;
40815;SDS011;26535;48.788;9.214;2022-09-09T11:55:19;1.77;;;0.20;;
40815;SDS011;26535;48.788;9.214;2022-09-09T12:06:08;0.70;;;0.10;;
40815;SDS011;26535;48.788;9.214;2022-09-09T12:08:46;1.55;;;0.30;;
40815;SDS011;26535;48.788;9.214;2022-09-09T12:11:25;1.13;;;0.10;;
40815;SDS011;26535;48.788;9.214;2022-09-09T12:13:52;1.02;;;0.20;;
40815;SDS011;26535;48.788;9.214;2022-09-09T12:16:29;1.05;;;0.10;;
40815;SDS011;26535;48.788;9.214;2022-09-09T12:19:05;1.80;;;0.30;;
40815;SDS011;26535;48.788;9.214;2022-09-09T12:21:36;2.17;;;0.10;;
40815;SDS011;26535;48.788;9.214;2022-09-09T12:24:13;2.83;;;0.10;;
40815;SDS011;26535;48.788;9.214;2022-09-09T12:27:11;1.85;;;0.20;;
40815;SDS011;26535;48.788;9.214;2022-09-09T12:29:51;0.82;;;0.10;;
40815;SDS011;26535;48.788;9.214;2022-09-09T12:32:27;1.23;;;0.20;;
40815;SDS011;26535;48.788;9.214;2022-09-09T12:35:02;1.65;;;0.20;;
40815;SDS011;26535;48.788;9.214;2022-09-09T12:42:48;1.20;;;0.20;;
40815;SDS011;26535;48.788;9.214;2022-09-09T12:45:36;2.88;;;0.63;;
40815;SDS011;26535;48.788;9.214;2022-09-09T12:50:34;1.27;;;0.20;;
40815;SDS011;26535;48.788;9.214;2022-09-09T12:53:36;2.00;;;0.20;;
40815;SDS011;26535;48.788;9.214;2022-09-09T12:56:08;1.60;;;0.20;;
40815;SDS011;26535;48.788;9.214;2022-09-09T12:58:44;1.58;;;0.10;;
40815;SDS011;26535;48.788;9.214;2022-09-09T13:01:18;1.15;;;0.22;;
40815;SDS011;26535;48.788;9.214;2022-09-09T13:03:50;1.52;;;0.20;;
40815;SDS011;26535;48.788;9.214;2022-09-09T13:06:26;2.33;;;0.30;;
40815;SDS011;26535;48.788;9.214;2022-09-09T13:08:57;2.07;;;0.40;;
40815;SDS011;26535;48.788;9.214;2022-09-09T13:14:22;2.33;;;0.38;;
40815;SDS011;26535;48.788;9.214;2022-09-09T13:16:58;2.13;;;0.30;;
40815;SDS011;26535;48.788;9.214;2022-09-09T13:19:25;1.25;;;0.30;;
40815;SDS011;26535;48.788;9.214;2022-09-09T13:21:54;1.85;;;0.30;;
40815;SDS011;26535;48.788;9.214;2022-09-09T13:24:41;1.95;;;0.30;;
40815;SDS011;26535;48.788;9.214;2022-09-09T13:29:54;2.55;;;0.20;;
40815;SDS011;26535;48.788;9.214;2022-09-09T13:32:24;1.80;;;0.22;;
40815;SDS011;26535;48.788;9.214;2022-09-09T13:34:55;2.30;;;0.30;;
40815;SDS011;26535;48.788;9.214;2022-09-09T13:37:28;2.15;;;0.30;;
40815;SDS011;26535;48.788;9.214;2022-09-09T13:39:58;1.20;;;0.28;;
40815;SDS011;26535;48.788;9.214;2022-09-09T13:42:29;1.27;;;0.30;;
40815;SDS011;26535;48.788;9.214;2022-09-09T13:44:56;1.58;;;0.28;;
40815;SDS011;26535;48.788;9.214;2022-09-09T13:47:29;1.02;;;0.13;;
40815;SDS011;26535;48.788;9.214;2022-09-09T13:49:57;3.10;;;0.30;;
40815;SDS011;26535;48.788;9.214;2022-09-09T13:52:23;1.85;;;0.28;;
40815;SDS011;26535;48.788;9.214;2022-09-09T13:54:49;1.23;;;0.30;;
40815;SDS011;26535;48.788;9.214;2022-09-09T13:57:25;2.67;;;0.28;;
40815;SDS011;26535;48.788;9.214;2022-09-09T13:59:51;2.78;;;0.35;;
40815;SDS011;26535;48.788;9.214;2022-09-09T14:02:20;2.88;;;0.20;;
40815;SDS011;26535;48.788;9.214;2022-09-09T14:07:16;1.40;;;0.28;;
40815;SDS011;26535;48.788;9.214;2022-09-09T14:09:43;1.58;;;0.20;;
40815;SDS011;26535;48.788;9.214;2022-09-09T14:12:13;0.45;;;0.10;;
40815;SDS011;26535;48.788;9.214;2022-09-09T14:14:40;1.30;;;0.30;;
40815;SDS011;26535;48.788;9.214;2022-09-09T14:17:07;2.70;;;0.52;;
40815;SDS011;26535;48.788;9.214;2022-09-09T14:19:33;3.72;;;0.28;;
40815;SDS011;26535;48.788;9.214;2022-09-09T14:21:59;2.22;;;0.43;;
40815;SDS011;26535;48.788;9.214;2022-09-09T14:24:26;1.88;;;0.38;;
40815;SDS011;26535;48.788;9.214;2022-09-09T14:26:53;1.52;;;0.30;;
40815;SDS011;26535;48.788;9.214;2022-09-09T14:29:19;1.50;;;0.20;;
40815;SDS011;26535;48.788;9.214;2022-09-09T14:31:44;3.00;;;0.30;;
40815;SDS011;26535;48.788;9.214;2022-09-09T14:34:10;1.75;;;0.20;;
40815;SDS011;26535;48.788;9.214;2022-09-09T14:36:36;2.75;;;0.32;;
40815;SDS011;26535;48.788;9.214;2022-09-09T14:39:03;1.80;;;0.50;;
40815;SDS011;26535;48.788;9.214;2022-09-09T14:41:29;1.13;;;0.10;;
40815;SDS011;26535;48.788;9.214;2022-09-09T14:43:55;1.65;;;0.22;;
40815;SDS011;26535;48.788;9.214;2022-09-09T14:46:22;1.30;;;0.20;;
40815;SDS011;26535;48.788;9.214;2022-09-09T14:48:48;4.75;;;0.32;;
40815;SDS011;26535;48.788;9.214;2022-09-09T14:51:15;1.08;;;0.20;;
40815;SDS011;26535;48.788;9.214;2022-09-09T14:53:47;2.28;;;0.25;;
40815;SDS011;26535;48.788;9.214;2022-09-09T14:56:19;1.42;;;0.20;;
40815;SDS011;26535;48.788;9.214;2022-09-09T14:58:47;1.42;;;0.30;;
40815;SDS011;26535;48.788;9.214;2022-09-09T15:01:14;2.00;;;0.20;;
40815;SDS011;26535;48.788;9.214;2022-09-09T15:06:09;1.17;;;0.20;;
40815;SDS011;26535;48.788;9.214;2022-09-09T15:08:37;2.65;;;0.20;;
40815;SDS011;26535;48.788;9.214;2022-09-09T15:11:05;1.33;;;0.10;;
40815;SDS011;26535;48.788;9.214;2022-09-09T15:13:35;2.08;;;0.40;;
40815;SDS011;26535;48.788;9.214;2022-09-09T15:16:24;0.63;;;0.10;;
40815;SDS011;26535;48.788;9.214;2022-09-09T15:18:53;1.83;;;0.22;;
40815;SDS011;26535;48.788;9.214;2022-09-09T15:21:22;2.75;;;0.30;;
40815;SDS011;26535;48.788;9.214;2022-09-09T15:23:49;0.88;;;0.20;;
40815;SDS011;26535;48.788;9.214;2022-09-09T15:26:16;1.63;;;0.30;;
40815;SDS011;26535;48.788;9.214;2022-09-09T15:28:43;1.58;;;0.15;;
40815;SDS011;26535;48.788;9.214;2022-09-09T15:31:16;1.52;;;0.20;;
40815;SDS011;26535;48.788;9.214;2022-09-09T15:33:59;2.93;;;0.30;;
40815;SDS011;26535;48.788;9.214;2022-09-09T15:36:31;2.20;;;0.40;;
40815;SDS011;26535;48.788;9.214;2022-09-09T15:38:59;1.58;;;0.28;;
40815;SDS011;26535;48.788;9.214;2022-09-09T15:41:25;1.27;;;0.20;;
40815;SDS011;26535;48.788;9.214;2022-09-09T15:43:53;2.10;;;0.28;;
40815;SDS011;26535;48.788;9.214;2022-09-09T15:46:41;2.13;;;0.47;;
40815;SDS011;26535;48.788;9.214;2022-09-09T15:49:12;3.65;;;0.52;;
40815;SDS011;26535;48.788;9.214;2022-09-09T15:51:40;2.58;;;0.40;;
40815;SDS011;26535;48.788;9.214;2022-09-09T15:54:08;1.73;;;0.32;;
40815;SDS011;26535;48.788;9.214;2022-09-09T15:56:38;3.08;;;0.32;;
40815;SDS011;26535;48.788;9.214;2022-09-09T15:59:04;1.85;;;0.40;;
40815;SDS011;26535;48.788;9.214;2022-09-09T16:01:31;2.83;;;0.25;;
40815;SDS011;26535;48.788;9.214;2022-09-09T16:03:57;2.00;;;0.50;;
40815;SDS011;26535;48.788;9.214;2022-09-09T16:06:27;2.03;;;0.60;;
40815;SDS011;26535;48.788;9.214;2022-09-09T16:08:54;2.03;;;0.28;;
40815;SDS011;26535;48.788;9.214;2022-09-09T16:11:22;1.85;;;0.30;;
40815;SDS011;26535;48.788;9.214;2022-09-09T16:13:53;1.90;;;0.30;;
40815;SDS011;26535;48.788;9.214;2022-09-09T16:16:21;2.33;;;0.50;;
40815;SDS011;26535;48.788;9.214;2022-09-09T16:18:53;3.03;;;0.45;;
40815;SDS011;26535;48.788;9.214;2022-09-09T16:21:21;2.17;;;0.40;;
40815;SDS011;26535;48.788;9.214;2022-09-09T16:23:54;4.32;;;0.52;;
40815;SDS011;26535;48.788;9.214;2022-09-09T16:26:21;3.97;;;1.42;;
40815;SDS011;26535;48.788;9.214;2022-09-09T16:28:47;4.10;;;1.27;;
40815;SDS011;26535;48.788;9.214;2022-09-09T16:31:17;3.22;;;0.50;;
40815;SDS011;26535;48.788;9.214;2022-09-09T16:33:45;1.98;;;0.55;;
40815;SDS011;26535;48.788;9.214;2022-09-09T16:36:18;4.07;;;1.13;;
40815;SDS011;26535;48.788;9.214;2022-09-09T16:38:45;2.33;;;0.75;;
40815;SDS011;26535;48.788;9.214;2022-09-09T16:41:12;2.80;;;0.75;;
40815;SDS011;26535;48.788;9.214;2022-09-09T16:43:39;1.90;;;0.40;;
40815;SDS011;26535;48.788;9.214;2022-09-09T16:46:16;2.53;;;0.30;;
40815;SDS011;26535;48.788;9.214;2022-09-09T16:48:44;1.40;;;0.35;;
40815;SDS011;26535;48.788;9.214;2022-09-09T16:51:12;1.13;;;0.30;;
40815;SDS011;26535;48.788;9.214;2022-09-09T16:53:49;2.38;;;0.20;;
40815;SDS011;26535;48.788;9.214;2022-09-09T16:56:19;0.77;;;0.20;;
40815;SDS011;26535;48.788;9.214;2022-09-09T16:58:58;1.25;;;0.28;;
40815;SDS011;26535;48.788;9.214;2022-09-09T17:01:30;0.68;;;0.10;;
40815;SDS011;26535;48.788;9.214;2022-09-09T17:03:59;2.95;;;0.20;;
40815;SDS011;26535;48.788;9.214;2022-09-09T17:06:27;1.00;;;0.10;;
40815;SDS011;26535;48.788;9.214;2022-09-09T17:08:58;0.52;;;0.10;;
40815;SDS011;26535;48.788;9.214;2022-09-09T17:11:26;0.55;;;0.10;;
40815;SDS011;26535;48.788;9.214;2022-09-09T17:13:53;0.93;;;0.17;;
40815;SDS011;26535;48.788;9.214;2022-09-09T17:16:21;1.13;;;0.13;;
40815;SDS011;26535;48.788;9.214;2022-09-09T17:18:49;2.10;;;0.20;;
40815;SDS011;26535;48.788;9.214;2022-09-09T17:21:17;0.95;;;0.15;;
40815;SDS011;26535;48.788;9.214;2022-09-09T17:23:45;0.98;;;0.20;;
40815;SDS011;26535;48.788;9.214;2022-09-09T17:26:13;1.00;;;0.20;;
40815;SDS011;26535;48.788;9.214;2022-09-09T17:31:07;1.17;;;0.30;;
40815;SDS011;26535;48.788;9.214;2022-09-09T17:33:34;1.23;;;0.33;;
40815;SDS011;26535;48.788;9.214;2022-09-09T17:36:06;1.88;;;0.40;;
40815;SDS011;26535;48.788;9.214;2022-09-09T17:38:34;1.85;;;0.30;;
40815;SDS011;26535;48.788;9.214;2022-09-09T17:41:21;0.85;;;0.25;;
40815;SDS011;26535;48.788;9.214;2022-09-09T17:43:57;1.55;;;0.30;;
40815;SDS011;26535;48.788;9.214;2022-09-09T17:46:27;2.33;;;0.60;;
40815;SDS011;26535;48.788;9.214;2022-09-09T17:48:55;2.00;;;0.85;;
40815;SDS011;26535;48.788;9.214;2022-09-09T17:51:24;2.05;;;0.60;;
40815;SDS011;26535;48.788;9.214;2022-09-09T17:54:00;2.15;;;0.57;;
40815;SDS011;26535;48.788;9.214;2022-09-09T17:59:02;2.53;;;0.35;;
40815;SDS011;26535;48.788;9.214;2022-09-09T18:01:31;2.72;;;0.50;;
40815;SDS011;26535;48.788;9.214;2022-09-09T18:03:59;1.98;;;0.60;;
40815;SDS011;26535;48.788;9.214;2022-09-09T18:06:27;2.42;;;0.40;;
40815;SDS011;26535;48.788;9.214;2022-09-09T18:09:03;2.22;;;0.43;;
40815;SDS011;26535;48.788;9.214;2022-09-09T18:11:34;1.35;;;0.35;;
40815;SDS011;26535;48.788;9.214;2022-09-09T18:14:06;2.08;;;0.40;;
40815;SDS011;26535;48.788;9.214;2022-09-09T18:16:35;1.88;;;0.40;;
40815;SDS011;26535;48.788;9.214;2022-09-09T18:19:04;2.50;;;0.45;;
40815;SDS011;26535;48.788;9.214;2022-09-09T18:21:33;1.13;;;0.40;;
40815;SDS011;26535;48.788;9.214;2022-09-09T18:24:00;3.75;;;0.40;;
40815;SDS011;26535;48.788;9.214;2022-09-09T18:26:27;1.95;;;0.35;;
40815;SDS011;26535;48.788;9.214;2022-09-09T18:28:54;1.58;;;0.30;;
40815;SDS011;26535;48.788;9.214;2022-09-09T18:31:22;1.77;;;0.68;;
40815;SDS011;26535;48.788;9.214;2022-09-09T18:33:50;2.33;;;0.32;;
40815;SDS011;26535;48.788;9.214;2022-09-09T18:36:19;1.63;;;0.40;;
40815;SDS011;26535;48.788;9.214;2022-09-09T18:38:50;3.47;;;0.57;;
40815;SDS011;26535;48.788;9.214;2022-09-09T18:41:18;2.20;;;0.65;;
40815;SDS011;26535;48.788;9.214;2022-09-09T18:43:49;3.72;;;1.52;;
40815;SDS011;26535;48.788;9.214;2022-09-09T18:46:17;2.40;;;1.15;;
40815;SDS011;26535;48.788;9.214;2022-09-09T18:48:44;2.83;;;0.95;;
40815;SDS011;26535;48.788;9.214;2022-09-09T18:51:11;2.22;;;0.57;;
40815;SDS011;26535;48.788;9.214;2022-09-09T18:53:39;4.85;;;0.60;;
40815;SDS011;26535;48.788;9.214;2022-09-09T18:56:09;2.00;;;0.60;;
40815;SDS011;26535;48.788;9.214;2022-09-09T18:58:36;3.50;;;0.77;;
40815;SDS011;26535;48.788;9.214;2022-09-09T19:01:03;2.90;;;1.30;;
40815;SDS011;26535;48.788;9.214;2022-09-09T19:03:33;3.42;;;0.85;;
40815;SDS011;26535;48.788;9.214;2022-09-09T19:06:03;2.83;;;0.73;;
40815;SDS011;26535;48.788;9.214;2022-09-09T19:08:35;2.13;;;0.63;;
40815;SDS011;26535;48.788;9.214;2022-09-09T19:11:02;3.92;;;0.70;;
40815;SDS011;26535;48.788;9.214;2022-09-09T19:13:29;3.65;;;1.45;;
40815;SDS011;26535;48.788;9.214;2022-09-09T19:16:01;6.28;;;4.15;;
40815;SDS011;26535;48.788;9.214;2022-09-09T19:18:31;3.28;;;1.92;;
40815;SDS011;26535;48.788;9.214;2022-09-09T19:21:15;3.47;;;1.10;;
40815;SDS011;26535;48.788;9.214;2022-09-09T19:23:43;6.43;;;2.50;;
40815;SDS011;26535;48.788;9.214;2022-09-09T19:26:10;7.20;;;3.70;;
40815;SDS011;26535;48.788;9.214;2022-09-09T19:28:40;6.03;;;2.90;;
40815;SDS011;26535;48.788;9.214;2022-09-09T19:31:10;4.78;;;3.40;;
40815;SDS011;26535;48.788;9.214;2022-09-09T19:33:36;4.57;;;1.95;;
40815;SDS011;26535;48.788;9.214;2022-09-09T19:36:03;1.80;;;0.52;;
40815;SDS011;26535;48.788;9.214;2022-09-09T19:38:32;6.22;;;0.90;;
40815;SDS011;26535;48.788;9.214;2022-09-09T19:41:01;2.42;;;0.82;;
40815;SDS011;26535;48.788;9.214;2022-09-09T19:43:31;3.22;;;0.70;;
40815;SDS011;26535;48.788;9.214;2022-09-09T19:45:58;3.42;;;0.90;;
40815;SDS011;26535;48.788;9.214;2022-09-09T19:48:32;3.90;;;0.98;;
40815;SDS011;26535;48.788;9.214;2022-09-09T19:51:00;2.38;;;0.63;;
40815;SDS011;26535;48.788;9.214;2022-09-09T19:53:35;1.90;;;0.50;;
40815;SDS011;26535;48.788;9.214;2022-09-09T19:56:03;3.65;;;0.73;;
40815;SDS011;26535;48.788;9.214;2022-09-09T19:58:29;2.55;;;0.73;;
40815;SDS011;26535;48.788;9.214;2022-09-09T20:01:08;3.80;;;0.60;;
40815;SDS011;26535;48.788;9.214;2022-09-09T20:03:38;2.15;;;0.50;;
40815;SDS011;26535;48.788;9.214;2022-09-09T20:06:05;1.30;;;0.32;;
40815;SDS011;26535;48.788;9.214;2022-09-09T20:08:33;2.03;;;0.40;;
40815;SDS011;26535;48.788;9.214;2022-09-09T20:11:00;2.83;;;0.90;;
40815;SDS011;26535;48.788;9.214;2022-09-09T20:13:28;2.63;;;0.47;;
40815;SDS011;26535;48.788;9.214;2022-09-09T20:15:55;1.05;;;0.40;;
40815;SDS011;26535;48.788;9.214;2022-09-09T20:18:28;3.45;;;0.70;;
40815;SDS011;26535;48.788;9.214;2022-09-09T20:21:00;2.17;;;0.40;;
40815;SDS011;26535;48.788;9.214;2022-09-09T20:23:30;1.60;;;0.30;;
40815;SDS011;26535;48.788;9.214;2022-09-09T20:25:59;2.33;;;0.70;;
40815;SDS011;26535;48.788;9.214;2022-09-09T20:28:27;1.50;;;0.50;;
40815;SDS011;26535;48.788;9.214;2022-09-09T20:30:53;1.70;;;0.40;;
40815;SDS011;26535;48.788;9.214;2022-09-09T20:33:19;3.25;;;0.50;;
40815;SDS011;26535;48.788;9.214;2022-09-09T20:35:46;2.45;;;0.60;;
40815;SDS011;26535;48.788;9.214;2022-09-09T20:38:12;2.45;;;0.57;;
40815;SDS011;26535;48.788;9.214;2022-09-09T20:40:39;4.85;;;0.80;;
40815;SDS011;26535;48.788;9.214;2022-09-09T20:43:06;2.90;;;0.70;;
40815;SDS011;26535;48.788;9.214;2022-09-09T20:45:55;2.58;;;0.45;;
40815;SDS011;26535;48.788;9.214;2022-09-09T20:48:40;1.63;;;0.40;;
40815;SDS011;26535;48.788;9.214;2022-09-09T20:51:25;2.85;;;0.63;;
40815;SDS011;26535;48.788;9.214;2022-09-09T20:56:34;1.55;;;0.40;;
40815;SDS011;26535;48.788;9.214;2022-09-09T20:59:03;3.05;;;0.35;;
40815;SDS011;26535;48.788;9.214;2022-09-09T21:01:29;3.47;;;0.50;;
40815;SDS011;26535;48.788;9.214;2022-09-09T21:03:55;3.85;;;0.60;;
40815;SDS011;26535;48.788;9.214;2022-09-09T21:06:21;3.67;;;0.50;;
40815;SDS011;26535;48.788;9.214;2022-09-09T21:08:47;2.17;;;0.40;;
40815;SDS011;26535;48.788;9.214;2022-09-09T21:11:13;4.75;;;0.40;;
40815;SDS011;26535;48.788;9.214;2022-09-09T21:13:39;3.28;;;0.40;;
40815;SDS011;26535;48.788;9.214;2022-09-09T21:16:06;2.40;;;0.50;;
40815;SDS011;26535;48.788;9.214;2022-09-09T21:18:34;2.10;;;0.30;;
40815;SDS011;26535;48.788;9.214;2022-09-09T21:21:01;2.55;;;0.45;;
40815;SDS011;26535;48.788;9.214;2022-09-09T21:23:27;2.13;;;0.43;;
40815;SDS011;26535;48.788;9.214;2022-09-09T21:25:54;2.55;;;0.40;;
40815;SDS011;26535;48.788;9.214;2022-09-09T21:28:20;1.75;;;0.60;;
40815;SDS011;26535;48.788;9.214;2022-09-09T21:30:47;2.58;;;0.65;;
40815;SDS011;26535;48.788;9.214;2022-09-09T21:33:15;2.05;;;0.47;;
40815;SDS011;26535;48.788;9.214;2022-09-09T21:35:42;3.63;;;0.77;;
40815;SDS011;26535;48.788;9.214;2022-09-09T21:38:12;2.88;;;0.50;;
40815;SDS011;26535;48.788;9.214;2022-09-09T21:40:43;3.45;;;0.70;;
40815;SDS011;26535;48.788;9.214;2022-09-09T21:43:10;3.22;;;0.40;;
40815;SDS011;26535;48.788;9.214;2022-09-09T21:45:41;5.13;;;0.90;;
40815;SDS011;26535;48.788;9.214;2022-09-09T21:48:09;3.90;;;0.52;;
40815;SDS011;26535;48.788;9.214;2022-09-09T21:53:02;2.75;;;0.60;;
40815;SDS011;26535;48.788;9.214;2022-09-09T21:55:31;6.78;;;3.55;;
40815;SDS011;26535;48.788;9.214;2022-09-09T21:58:01;6.90;;;5.10;;
40815;SDS011;26535;48.788;9.214;2022-09-09T22:00:28;3.13;;;0.70;;
40815;SDS011;26535;48.788;9.214;2022-09-09T22:02:54;3.25;;;0.57;;
40815;SDS011;26535;48.788;9.214;2022-09-09T22:05:19;4.82;;;1.00;;
40815;SDS011;26535;48.788;9.214;2022-09-09T22:07:45;3.20;;;1.27;;
40815;SDS011;26535;48.788;9.214;2022-09-09T22:10:11;2.20;;;0.60;;
40815;SDS011;26535;48.788;9.214;2022-09-09T22:12:37;2.05;;;0.55;;
40815;SDS011;26535;48.788;9.214;2022-09-09T22:15:03;2.50;;;1.08;;
40815;SDS011;26535;48.788;9.214;2022-09-09T22:17:30;3.43;;;1.30;;
40815;SDS011;26535;48.788;9.214;2022-09-09T22:19:58;3.22;;;1.67;;
40815;SDS011;26535;48.788;9.214;2022-09-09T22:22:24;2.88;;;1.00;;
40815;SDS011;26535;48.788;9.214;2022-09-09T22:24:49;3.03;;;0.90;;
40815;SDS011;26535;48.788;9.214;2022-09-09T22:27:16;2.90;;;0.70;;
40815;SDS011;26535;48.788;9.214;2022-09-09T22:29:41;2.80;;;1.00;;
40815;SDS011;26535;48.788;9.214;2022-09-09T22:32:07;3.65;;;1.10;;
40815;SDS011;26535;48.788;9.214;2022-09-09T22:34:34;4.38;;;0.70;;
40815;SDS011;26535;48.788;9.214;2022-09-09T22:37:01;2.70;;;0.57;;
40815;SDS011;26535;48.788;9.214;2022-09-09T22:39:28;3.92;;;0.80;;
40815;SDS011;26535;48.788;9.214;2022-09-09T22:41:53;2.70;;;0.82;;
40815;SDS011;26535;48.788;9.214;2022-09-09T22:44:23;4.03;;;0.70;;
40815;SDS011;26535;48.788;9.214;2022-09-09T22:46:50;3.27;;;0.63;;
40815;SDS011;26535;48.788;9.214;2022-09-09T22:49:17;4.07;;;0.77;;
40815;SDS011;26535;48.788;9.214;2022-09-09T22:51:43;2.90;;;0.68;;
40815;SDS011;26535;48.788;9.214;2022-09-09T22:54:09;2.50;;;0.70;;
40815;SDS011;26535;48.788;9.214;2022-09-09T22:56:34;3.30;;;0.60;;
40815;SDS011;26535;48.788;9.214;2022-09-09T22:59:00;2.65;;;0.40;;
